Time;durP1;ratioP1;P1;durP2;ratioP2;P2;SDS_P1;SDS_P2;PMS_P1;PMS_P2;Temp;Humidity;BMP_temperature;BMP_pressure;BME280_temperature;BME280_humidity;BME280_pressure;Samples;Min_cycle;Max_cycle;Signal;HPM_P1;HPM_P2
2021/01/07 00:00:43;;;;;;;34.00;28.30;;;19.80;44.80;;;;;;5078669;28;20522;-52
2021/01/07 00:03:10;;;;;;;33.13;28.90;;;19.80;44.80;;;;;;5082831;28;20096;-52
2021/01/07 00:05:37;;;;;;;36.10;28.90;;;19.70;44.80;;;;;;5079380;28;20107;-52
2021/01/07 00:08:04;;;;;;;32.67;29.10;;;19.80;44.90;;;;;;5078447;28;20033;-52
2021/01/07 00:10:30;;;;;;;33.38;28.33;;;19.80;45.00;;;;;;5073770;28;20103;-52
2021/01/07 00:12:56;;;;;;;34.08;30.40;;;19.70;44.90;;;;;;5063269;28;20099;-52
2021/01/07 00:15:22;;;;;;;34.92;30.90;;;19.70;44.90;;;;;;5080649;28;20028;-52
2021/01/07 00:17:49;;;;;;;36.50;32.42;;;19.70;45.00;;;;;;5063507;28;20089;-52
2021/01/07 00:20:16;;;;;;;31.58;26.95;;;19.70;45.00;;;;;;5078687;28;20085;-52
2021/01/07 00:22:42;;;;;;;32.22;28.02;;;19.70;45.10;;;;;;5088730;28;20107;-52
2021/01/07 00:25:09;;;;;;;30.58;26.42;;;19.60;45.10;;;;;;5083271;28;20115;-52
2021/01/07 00:27:36;;;;;;;32.92;28.92;;;19.60;45.10;;;;;;5082468;28;20381;-52
2021/01/07 00:30:05;;;;;;;29.67;26.58;;;19.60;45.10;;;;;;5080479;28;20075;-52
2021/01/07 00:32:32;;;;;;;30.55;26.80;;;19.60;45.20;;;;;;5090055;28;20027;-52
2021/01/07 00:34:58;;;;;;;28.10;25.08;;;19.60;45.20;;;;;;5082143;28;20053;-52
2021/01/07 00:37:24;;;;;;;30.33;25.80;;;19.60;45.30;;;;;;5084182;28;20052;-52
2021/01/07 00:39:50;;;;;;;26.85;24.00;;;19.60;45.30;;;;;;5082048;28;20043;-52
2021/01/07 00:42:19;;;;;;;31.70;25.90;;;19.60;45.30;;;;;;5087014;28;20027;-52
2021/01/07 00:44:46;;;;;;;25.92;23.13;;;19.60;45.40;;;;;;5067160;28;20123;-52
2021/01/07 00:47:12;;;;;;;26.58;23.13;;;19.60;45.50;;;;;;5077234;28;20039;-52
2021/01/07 00:49:38;;;;;;;25.02;22.13;;;19.50;45.40;;;;;;5064080;28;20029;-52
2021/01/07 00:52:04;;;;;;;25.45;22.30;;;19.50;45.50;;;;;;5053465;28;20094;-52
2021/01/07 00:54:30;;;;;;;25.50;20.75;;;19.50;45.50;;;;;;5082358;28;20440;-53
2021/01/07 00:56:59;;;;;;;20.10;18.00;;;19.50;45.50;;;;;;5061409;28;20043;-53
2021/01/07 00:59:28;;;;;;;20.52;18.30;;;19.50;45.70;;;;;;5062998;28;20031;-53
2021/01/07 01:01:54;;;;;;;20.38;17.08;;;19.50;45.80;;;;;;5078624;28;20032;-52
2021/01/07 01:04:20;;;;;;;20.45;18.35;;;19.40;45.70;;;;;;5087868;28;20069;-50
2021/01/07 01:06:46;;;;;;;18.15;16.17;;;19.40;45.80;;;;;;5081266;28;20021;-51
2021/01/07 01:09:13;;;;;;;17.77;15.88;;;19.40;45.80;;;;;;5076603;28;20032;-51
2021/01/07 01:11:47;;;;;;;17.17;15.38;;;19.40;45.90;;;;;;5085399;28;20028;-51
2021/01/07 01:14:18;;;;;;;15.60;14.00;;;19.40;46.10;;;;;;5080349;28;20040;-51
2021/01/07 01:16:50;;;;;;;15.30;12.82;;;19.40;46.20;;;;;;5080806;28;20020;-51
2021/01/07 01:19:17;;;;;;;13.70;12.27;;;19.30;46.10;;;;;;5083763;28;20042;-51
2021/01/07 01:21:43;;;;;;;15.73;13.23;;;19.30;46.20;;;;;;5088195;28;20772;-51
2021/01/07 01:24:10;;;;;;;12.80;11.55;;;19.30;46.20;;;;;;5080078;28;20028;-51
2021/01/07 01:26:36;;;;;;;12.23;10.90;;;19.30;46.30;;;;;;5079358;28;20132;-51
2021/01/07 01:29:02;;;;;;;12.32;11.02;;;19.30;46.30;;;;;;5085903;28;20111;-51
2021/01/07 01:31:28;;;;;;;12.07;10.70;;;19.30;46.30;;;;;;5081276;28;20020;-51
2021/01/07 01:33:54;;;;;;;13.60;10.93;;;19.30;46.40;;;;;;5085053;28;20035;-51
2021/01/07 01:36:25;;;;;;;12.23;10.27;;;19.20;46.40;;;;;;5078804;28;20032;-50
2021/01/07 01:38:51;;;;;;;10.85;9.73;;;19.20;46.60;;;;;;5079365;28;20028;-51
2021/01/07 01:41:17;;;;;;;10.45;8.75;;;19.20;46.50;;;;;;5083978;28;20035;-51
2021/01/07 01:43:43;;;;;;;9.73;8.73;;;19.20;46.60;;;;;;5075693;28;20054;-50
2021/01/07 01:46:09;;;;;;;9.98;8.50;;;19.20;46.70;;;;;;5075593;28;20064;-51
2021/01/07 01:48:35;;;;;;;10.38;9.25;;;19.20;46.70;;;;;;5074035;28;20097;-50
2021/01/07 01:51:01;;;;;;;9.10;8.00;;;19.20;46.70;;;;;;5081768;28;20024;-50
2021/01/07 01:53:27;;;;;;;9.25;8.30;;;19.20;46.80;;;;;;5085868;28;20347;-52
2021/01/07 01:55:54;;;;;;;8.77;7.88;;;19.20;46.80;;;;;;5081332;28;20077;-51
2021/01/07 01:58:21;;;;;;;8.95;7.57;;;19.10;46.80;;;;;;5076302;28;20033;-51
2021/01/07 02:00:46;;;;;;;7.68;6.93;;;19.10;46.90;;;;;;5083700;28;20024;-51
2021/01/07 02:03:13;;;;;;;7.72;6.80;;;19.10;46.90;;;;;;5075728;28;20378;-51
2021/01/07 02:05:40;;;;;;;7.63;6.85;;;19.10;46.90;;;;;;5076020;28;20098;-51
2021/01/07 02:08:08;;;;;;;6.10;5.50;;;19.10;47.00;;;;;;5085935;28;20040;-51
2021/01/07 02:10:34;;;;;;;6.57;5.78;;;19.10;47.20;;;;;;5075698;28;20040;-51
2021/01/07 02:13:03;;;;;;;6.32;5.72;;;19.10;47.10;;;;;;5080851;28;20074;-51
2021/01/07 02:15:30;;;;;;;7.18;6.15;;;19.10;47.20;;;;;;5059965;28;20420;-51
2021/01/07 02:17:56;;;;;;;7.57;5.43;;;19.00;47.10;;;;;;5079844;28;20494;-51
2021/01/07 02:20:26;;;;;;;5.13;4.63;;;19.00;47.10;;;;;;5085048;28;20060;-51
2021/01/07 02:22:54;;;;;;;5.85;4.70;;;19.00;47.30;;;;;;5080862;28;20017;-51
2021/01/07 02:25:21;;;;;;;5.63;5.03;;;19.00;47.20;;;;;;5076221;28;20024;-51
2021/01/07 02:27:47;;;;;;;5.65;4.72;;;19.00;47.20;;;;;;5078227;28;20387;-51
2021/01/07 02:30:14;;;;;;;5.35;4.85;;;19.00;47.20;;;;;;5079408;28;20458;-52
2021/01/07 02:32:40;;;;;;;5.40;4.28;;;19.00;47.30;;;;;;5078146;28;20489;-52
2021/01/07 02:35:08;;;;;;;4.82;4.32;;;19.00;47.30;;;;;;5080744;28;20027;-52
2021/01/07 02:37:34;;;;;;;5.00;3.80;;;18.90;47.30;;;;;;5078793;28;20020;-52
2021/01/07 02:40:00;;;;;;;4.45;3.92;;;19.00;47.40;;;;;;5077891;28;20031;-52
2021/01/07 02:42:26;;;;;;;4.93;3.75;;;19.00;47.40;;;;;;5090209;28;20480;-52
2021/01/07 02:44:53;;;;;;;4.20;3.80;;;18.90;47.40;;;;;;5083304;28;20418;-52
2021/01/07 02:47:19;;;;;;;4.18;3.63;;;18.90;47.40;;;;;;5080957;28;20020;-52
2021/01/07 02:49:45;;;;;;;4.43;3.60;;;18.90;47.40;;;;;;5077122;28;20033;-52
2021/01/07 02:52:11;;;;;;;4.38;3.75;;;18.90;47.50;;;;;;5087590;28;20382;-52
2021/01/07 02:54:37;;;;;;;4.55;4.15;;;18.90;47.50;;;;;;5083341;28;20031;-51
2021/01/07 02:57:03;;;;;;;5.57;4.20;;;18.90;47.50;;;;;;5075778;28;20159;-51
2021/01/07 02:59:29;;;;;;;5.47;3.38;;;18.90;47.60;;;;;;5091755;28;20032;-51
2021/01/07 03:01:55;;;;;;;3.65;3.28;;;18.90;47.60;;;;;;5076225;28;20035;-51
2021/01/07 03:04:21;;;;;;;3.83;3.13;;;18.90;47.60;;;;;;5078366;28;20028;-52
2021/01/07 03:06:47;;;;;;;3.88;3.10;;;18.90;47.70;;;;;;5078646;28;20032;-51
2021/01/07 03:09:14;;;;;;;3.45;3.05;;;18.80;47.70;;;;;;5080539;28;20025;-51
2021/01/07 03:11:40;;;;;;;3.60;3.28;;;18.90;47.70;;;;;;5089811;28;20016;-51
2021/01/07 03:14:06;;;;;;;3.40;2.95;;;18.90;47.70;;;;;;5059824;28;20052;-51
2021/01/07 03:16:32;;;;;;;3.50;2.90;;;18.90;47.70;;;;;;5079392;28;20529;-51
2021/01/07 03:18:58;;;;;;;5.35;3.00;;;18.90;47.80;;;;;;5085992;28;20060;-50
2021/01/07 03:21:24;;;;;;;2.97;2.40;;;18.80;47.80;;;;;;5078365;28;20025;-51
2021/01/07 03:23:50;;;;;;;3.40;2.63;;;18.80;47.80;;;;;;5063800;28;20386;-50
2021/01/07 03:26:16;;;;;;;3.28;2.88;;;18.80;47.90;;;;;;5077384;28;20039;-51
2021/01/07 03:28:43;;;;;;;2.95;2.45;;;18.80;48.00;;;;;;5084430;28;20056;-50
2021/01/07 03:31:10;;;;;;;2.75;2.38;;;18.80;47.90;;;;;;5073588;28;20043;-51
2021/01/07 03:33:36;;;;;;;2.50;2.30;;;18.80;48.00;;;;;;5078443;28;20020;-51
2021/01/07 03:36:03;;;;;;;2.90;2.17;;;18.80;48.00;;;;;;5086244;28;20359;-51
2021/01/07 03:38:29;;;;;;;2.50;1.92;;;18.80;48.10;;;;;;5077665;28;20030;-51
2021/01/07 03:40:55;;;;;;;3.20;2.70;;;18.80;48.10;;;;;;5081838;28;20036;-51
2021/01/07 03:43:22;;;;;;;2.72;2.53;;;18.80;48.10;;;;;;5086376;28;20067;-52
2021/01/07 03:45:48;;;;;;;3.15;2.33;;;18.70;48.10;;;;;;5083531;28;20063;-52
2021/01/07 03:48:14;;;;;;;2.42;1.90;;;18.80;48.20;;;;;;5062601;28;20041;-52
2021/01/07 03:50:40;;;;;;;2.22;1.70;;;18.70;48.20;;;;;;5082260;28;20101;-52
2021/01/07 03:53:06;;;;;;;2.22;1.80;;;18.70;48.20;;;;;;5079236;28;20067;-51
2021/01/07 03:55:32;;;;;;;2.30;2.10;;;18.70;48.20;;;;;;5077333;28;20024;-52
2021/01/07 03:57:58;;;;;;;2.65;1.92;;;18.70;48.30;;;;;;5076541;28;20020;-52
2021/01/07 04:00:24;;;;;;;3.00;2.20;;;18.70;48.30;;;;;;5079422;28;20024;-51
2021/01/07 04:02:50;;;;;;;3.92;2.58;;;18.70;48.30;;;;;;5090545;28;20036;-52
2021/01/07 04:05:16;;;;;;;4.20;3.80;;;18.70;48.30;;;;;;5080427;28;20375;-52
2021/01/07 04:07:42;;;;;;;7.15;6.15;;;18.70;48.20;;;;;;5078657;28;20387;-52
2021/01/07 04:10:09;;;;;;;10.48;8.80;;;18.70;48.30;;;;;;5080420;28;20035;-52
2021/01/07 04:12:35;;;;;;;8.93;8.02;;;18.70;48.40;;;;;;5081715;28;20089;-52
2021/01/07 04:15:03;;;;;;;9.52;8.60;;;18.70;48.40;;;;;;5076533;28;20481;-52
2021/01/07 04:17:31;;;;;;;10.15;8.98;;;18.70;48.40;;;;;;5079512;28;20075;-52
2021/01/07 04:19:57;;;;;;;9.02;7.28;;;18.70;48.50;;;;;;5087157;28;20024;-52
2021/01/07 04:22:23;;;;;;;9.07;7.55;;;18.70;48.50;;;;;;5082333;28;20044;-52
2021/01/07 04:24:49;;;;;;;9.27;8.02;;;18.70;48.50;;;;;;5079062;28;20056;-52
2021/01/07 04:27:15;;;;;;;8.90;7.93;;;18.70;48.60;;;;;;5086901;28;20036;-52
2021/01/07 04:29:44;;;;;;;10.20;7.55;;;18.70;48.60;;;;;;5089874;28;20032;-52
2021/01/07 04:32:10;;;;;;;7.72;6.65;;;18.70;48.70;;;;;;5083279;28;20070;-52
2021/01/07 04:34:36;;;;;;;7.35;6.20;;;18.70;49.30;;;;;;5084449;28;20481;-52
2021/01/07 04:37:02;;;;;;;7.72;6.47;;;18.70;48.70;;;;;;5084712;28;20062;-52
2021/01/07 04:39:28;;;;;;;7.28;6.22;;;18.70;48.70;;;;;;5079211;28;20028;-52
2021/01/07 04:41:55;;;;;;;6.18;5.57;;;18.70;48.70;;;;;;5081561;28;20036;-52
2021/01/07 04:44:21;;;;;;;6.82;5.80;;;18.70;48.70;;;;;;5089499;28;20028;-52
2021/01/07 04:46:47;;;;;;;7.10;6.35;;;18.70;48.70;;;;;;5086971;28;20032;-52
2021/01/07 04:49:14;;;;;;;6.18;5.57;;;18.70;48.80;;;;;;5058174;28;20025;-52
2021/01/07 04:51:40;;;;;;;6.40;5.80;;;18.70;48.70;;;;;;5083473;28;20025;-52
2021/01/07 04:54:06;;;;;;;6.07;5.47;;;18.70;48.80;;;;;;5081416;28;20427;-51
2021/01/07 04:56:32;;;;;;;5.75;5.00;;;18.70;48.80;;;;;;5079588;28;20114;-50
2021/01/07 04:58:58;;;;;;;6.82;5.32;;;18.80;48.80;;;;;;5084195;28;20029;-51
2021/01/07 05:01:24;;;;;;;5.45;4.90;;;18.70;48.80;;;;;;5081861;28;20020;-51
2021/01/07 05:03:52;;;;;;;5.00;4.50;;;18.80;48.90;;;;;;5078997;28;20032;-53
2021/01/07 05:06:24;;;;;;;5.72;4.75;;;18.80;48.90;;;;;;5076753;28;20470;-52
2021/01/07 05:09:01;;;;;;;5.10;4.45;;;18.80;49.60;;;;;;5076319;28;20054;-52
2021/01/07 05:11:29;;;;;;;5.07;4.40;;;18.80;49.00;;;;;;5086393;28;20553;-52
2021/01/07 05:14:02;;;;;;;3.65;3.35;;;18.80;48.90;;;;;;5084538;28;20017;-52
2021/01/07 05:16:29;;;;;;;4.80;4.25;;;18.80;49.00;;;;;;5085310;28;20101;-52
2021/01/07 05:18:55;;;;;;;3.83;3.42;;;18.80;49.00;;;;;;5064326;28;20451;-52
2021/01/07 05:21:22;;;;;;;6.00;5.07;;;18.80;49.20;;;;;;5081844;28;20063;-52
2021/01/07 05:23:51;;;;;;;6.70;6.05;;;18.80;49.20;;;;;;5079008;28;20051;-52
2021/01/07 05:26:18;;;;;;;14.65;13.10;;;18.70;49.20;;;;;;5083168;28;20028;-52
2021/01/07 05:28:55;;;;;;;19.00;16.45;;;18.70;49.10;;;;;;5084260;28;20021;-52
2021/01/07 05:31:26;;;;;;;20.23;17.10;;;18.70;49.30;;;;;;5078738;28;20029;-54
2021/01/07 05:33:53;;;;;;;18.50;16.30;;;18.70;49.20;;;;;;5085950;28;20020;-52
2021/01/07 05:36:27;;;;;;;17.88;16.05;;;18.70;49.30;;;;;;5083167;28;20119;-53
2021/01/07 05:38:56;;;;;;;17.95;16.05;;;18.70;49.30;;;;;;5081207;28;20040;-53
2021/01/07 05:41:27;;;;;;;15.60;14.00;;;18.70;49.30;;;;;;5075798;28;20024;-53
2021/01/07 05:44:04;;;;;;;18.85;16.83;;;18.70;49.30;;;;;;5079764;28;20556;-53
2021/01/07 05:46:31;;;;;;;20.65;18.42;;;18.70;49.30;;;;;;5080509;28;20474;-53
2021/01/07 05:48:57;;;;;;;26.15;23.38;;;18.80;49.30;;;;;;5085347;28;20031;-53
2021/01/07 05:51:25;;;;;;;32.65;28.95;;;18.70;49.20;;;;;;5082985;28;20485;-53
2021/01/07 05:53:56;;;;;;;59.78;51.67;;;18.70;49.30;;;;;;5078927;28;20028;-53
2021/01/07 05:56:23;;;;;;;101.20;87.50;;;18.80;49.40;;;;;;5084850;28;20063;-53
2021/01/07 05:58:52;;;;;;;98.25;85.43;;;18.80;49.30;;;;;;5086872;28;20036;-53
2021/01/07 06:01:20;;;;;;;99.88;86.30;;;18.80;49.30;;;;;;5082689;28;20032;-52
2021/01/07 06:03:48;;;;;;;89.97;77.70;;;18.80;49.40;;;;;;5077580;28;20115;-54
2021/01/07 06:06:19;;;;;;;84.47;73.00;;;18.70;49.40;;;;;;5087125;28;20100;-53
2021/01/07 06:08:50;;;;;;;79.43;67.65;;;18.80;49.50;;;;;;5082626;28;20032;-54
2021/01/07 06:11:18;;;;;;;78.10;66.10;;;18.70;49.40;;;;;;5080139;28;20032;-52
2021/01/07 06:13:46;;;;;;;77.95;67.78;;;18.80;49.40;;;;;;5077975;28;20352;-52
2021/01/07 06:16:17;;;;;;;72.10;64.00;;;18.80;49.30;;;;;;5079757;28;20106;-53
2021/01/07 06:18:43;;;;;;;70.22;61.53;;;18.80;49.40;;;;;;5087236;28;20048;-53
2021/01/07 06:21:11;;;;;;;61.65;54.85;;;18.80;49.40;;;;;;5079684;28;20036;-53
2021/01/07 06:23:45;;;;;;;63.22;56.10;;;18.80;49.30;;;;;;5082182;28;20122;-52
2021/01/07 06:26:24;;;;;;;57.78;51.03;;;18.80;49.40;;;;;;5080541;28;20032;-52
2021/01/07 06:28:58;;;;;;;60.33;51.25;;;18.80;49.50;;;;;;5057524;28;20074;-53
2021/01/07 06:31:35;;;;;;;54.53;48.55;;;18.80;49.40;;;;;;5075895;28;20099;-53
2021/01/07 06:34:01;;;;;;;49.67;43.65;;;18.80;49.50;;;;;;5083816;28;20028;-53
2021/01/07 06:36:38;;;;;;;46.60;41.35;;;18.80;49.40;;;;;;5081058;28;20021;-53
2021/01/07 06:39:06;;;;;;;48.13;42.53;;;18.80;49.40;;;;;;5083688;28;20032;-52
2021/01/07 06:41:33;;;;;;;42.58;38.05;;;18.80;49.30;;;;;;5081911;28;20028;-51
2021/01/07 06:43:59;;;;;;;40.70;36.25;;;18.80;49.30;;;;;;5075819;28;20077;-52
2021/01/07 06:46:40;;;;;;;38.90;34.70;;;18.80;49.30;;;;;;5078538;28;20023;-52
2021/01/07 06:49:18;;;;;;;35.55;31.50;;;18.80;49.40;;;;;;5084211;28;20449;-52
2021/01/07 06:52:13;;;;;;;35.20;31.02;;;18.80;49.50;;;;;;5085001;28;20077;-54
2021/01/07 06:54:44;;;;;;;33.38;29.75;;;18.80;49.40;;;;;;5001985;28;20487;-52
2021/01/07 06:57:13;;;;;;;31.70;27.42;;;18.80;49.40;;;;;;5001378;28;20038;-52
2021/01/07 06:59:58;;;;;;;30.17;26.90;;;18.80;49.40;;;;;;5003968;28;20034;-51
2021/01/07 07:02:25;;;;;;;24.25;20.45;;;18.80;49.30;;;;;;4999437;28;20038;-52
2021/01/07 07:05:09;;;;;;;25.00;22.33;;;18.80;49.30;;;;;;4996288;28;20052;-54
2021/01/07 07:07:38;;;;;;;36.90;32.47;;;18.80;49.40;;;;;;4999599;28;20057;-52
2021/01/07 07:10:18;;;;;;;40.50;34.05;;;18.80;49.40;;;;;;5000176;28;20037;-52
2021/01/07 07:12:49;;;;;;;37.78;33.42;;;18.80;49.40;;;;;;4998576;28;20034;-52
2021/01/07 07:15:16;;;;;;;;;;;18.80;49.50;;;;;;4990365;28;20026;-52
2021/01/07 07:17:46;;;;;;;33.83;28.10;;;18.80;49.40;;;;;;4999344;28;19921;-52
2021/01/07 07:20:18;;;;;;;32.20;27.05;;;18.80;49.30;;;;;;4996405;28;20038;-53
2021/01/07 07:22:45;;;;;;;30.05;25.38;;;18.90;49.50;;;;;;4994444;28;20041;-51
2021/01/07 07:25:13;;;;;;;29.45;26.23;;;18.80;49.40;;;;;;5006080;28;20034;-51
2021/01/07 07:28:05;;;;;;;25.77;23.00;;;18.80;49.50;;;;;;4993078;28;20077;-52
2021/01/07 07:30:35;;;;;;;25.58;22.73;;;18.80;49.60;;;;;;5019031;28;20041;-53
2021/01/07 07:33:02;;;;;;;25.88;22.38;;;18.80;49.60;;;;;;5077482;28;20028;-51
2021/01/07 07:35:42;;;;;;;23.05;20.40;;;18.80;49.60;;;;;;5056316;28;20111;-51
2021/01/07 07:38:11;;;;;;;20.65;18.45;;;18.80;49.70;;;;;;5082417;28;20035;-51
2021/01/07 07:40:40;;;;;;;21.73;17.50;;;18.80;49.70;;;;;;5087796;28;20024;-52
2021/01/07 07:43:08;;;;;;;19.52;17.42;;;18.80;49.70;;;;;;5077230;28;20052;-51
2021/01/07 07:45:40;;;;;;;17.98;16.08;;;18.80;49.80;;;;;;5061047;28;20039;-52
2021/01/07 07:48:09;;;;;;;18.27;16.35;;;18.80;49.80;;;;;;5086486;28;20028;-51
2021/01/07 07:50:35;;;;;;;16.27;13.77;;;18.80;49.80;;;;;;5085170;28;20115;-51
2021/01/07 07:53:08;;;;;;;16.52;14.65;;;18.80;49.80;;;;;;5086073;28;20039;-50
2021/01/07 07:55:35;;;;;;;16.27;14.40;;;18.80;50.00;;;;;;5063267;28;20039;-51
2021/01/07 07:58:20;;;;;;;53.40;43.20;;;18.80;49.90;;;;;;5059940;28;20103;-51
2021/01/07 08:00:50;;;;;;;50.45;41.50;;;18.80;50.00;;;;;;5060407;28;20042;-51
2021/01/07 08:03:22;;;;;;;51.92;45.20;;;18.80;49.90;;;;;;5080887;28;20069;-51
2021/01/07 08:05:48;;;;;;;52.70;46.80;;;18.80;49.90;;;;;;5086619;28;20055;-52
2021/01/07 08:08:25;;;;;;;55.33;46.53;;;18.80;49.80;;;;;;5072473;28;20021;-52
2021/01/07 08:10:52;;;;;;;49.72;43.35;;;18.80;49.90;;;;;;5080290;28;20037;-51
2021/01/07 08:13:20;;;;;;;45.70;40.53;;;18.80;49.90;;;;;;5082951;28;20083;-51
2021/01/07 08:15:54;;;;;;;52.35;46.22;;;18.80;49.90;;;;;;5085262;28;20033;-51
2021/01/07 08:18:22;;;;;;;61.75;51.67;;;18.80;50.00;;;;;;5067995;28;20055;-50
2021/01/07 08:20:51;;;;;;;69.22;61.63;;;18.80;49.90;;;;;;5062438;28;20048;-51
2021/01/07 08:23:18;;;;;;;70.22;59.17;;;18.80;50.50;;;;;;5082012;28;20451;-51
2021/01/07 08:25:50;;;;;;;70.45;61.45;;;18.90;50.00;;;;;;5064114;28;20027;-51
2021/01/07 08:28:31;;;;;;;74.40;63.67;;;18.80;50.00;;;;;;5074648;28;20428;-51
2021/01/07 08:31:05;;;;;;;69.35;61.72;;;18.80;50.10;;;;;;5077515;28;20470;-52
2021/01/07 08:33:34;;;;;;;74.65;65.55;;;18.80;50.70;;;;;;5085653;28;20035;-51
2021/01/07 08:36:07;;;;;;;78.63;68.88;;;18.90;50.10;;;;;;5079931;28;20033;-51
2021/01/07 08:38:34;;;;;;;74.60;64.72;;;18.90;50.20;;;;;;5074114;28;20032;-51
2021/01/07 08:41:10;;;;;;;68.95;61.38;;;18.90;50.10;;;;;;5081655;28;20028;-51
2021/01/07 08:43:37;;;;;;;59.67;52.72;;;18.90;50.10;;;;;;5083638;28;20497;-51
2021/01/07 08:46:12;;;;;;;58.20;51.35;;;18.90;50.00;;;;;;5077164;28;20028;-52
2021/01/07 08:48:38;;;;;;;82.50;73.60;;;19.00;50.10;;;;;;5088270;28;20024;-52
2021/01/07 08:51:21;;;;;;;98.38;87.78;;;19.00;50.10;;;;;;5087950;28;20470;-52
2021/01/07 08:53:47;;;;;;;107.93;96.30;;;18.90;50.20;;;;;;5083862;28;20052;-51
2021/01/07 08:56:31;;;;;;;121.38;108.25;;;19.00;50.10;;;;;;5085350;28;20036;-52
2021/01/07 08:59:29;;;;;;;119.55;106.68;;;19.00;50.20;;;;;;5083540;28;20032;-54
2021/01/07 09:02:00;;;;;;;113.13;100.90;;;19.00;50.10;;;;;;5076107;28;20120;-56
2021/01/07 09:04:36;;;;;;;95.88;85.75;;;19.00;50.00;;;;;;5063099;28;20528;-57
2021/01/07 09:07:03;;;;;;;88.25;78.80;;;19.10;50.10;;;;;;5081156;28;20024;-57
2021/01/07 09:09:47;;;;;;;70.05;61.55;;;19.10;50.10;;;;;;5079279;28;20020;-59
2021/01/07 09:12:13;;;;;;;58.97;51.92;;;19.20;50.30;;;;;;5076784;28;20551;-61
2021/01/07 09:14:49;;;;;;;48.45;43.25;;;19.20;50.10;;;;;;5088351;28;20025;-55
2021/01/07 09:17:17;;;;;;;37.78;33.67;;;19.20;50.10;;;;;;5084130;28;20037;-56
2021/01/07 09:19:45;;;;;;;37.45;33.55;;;19.30;50.10;;;;;;5060805;28;20028;-56
2021/01/07 09:22:19;;;;;;;33.72;30.08;;;19.30;50.20;;;;;;5079140;28;20461;-56
2021/01/07 09:24:46;;;;;;;32.10;28.67;;;19.30;50.10;;;;;;5063315;28;20091;-57
2021/01/07 09:27:17;;;;;;;33.42;28.88;;;19.30;50.00;;;;;;5061580;28;20198;-59
2021/01/07 09:29:43;;;;;;;33.05;28.15;;;19.40;50.00;;;;;;5079855;28;20024;-59
2021/01/07 09:32:11;;;;;;;27.65;24.83;;;19.40;49.90;;;;;;5076631;28;20127;-58
2021/01/07 09:34:38;;;;;;;31.05;27.65;;;19.40;49.80;;;;;;5062928;28;20024;-58
2021/01/07 09:37:16;;;;;;;29.85;26.75;;;19.50;49.80;;;;;;5087821;28;20028;-58
2021/01/07 09:39:43;;;;;;;26.00;23.30;;;19.50;49.70;;;;;;5080537;28;20039;-60
2021/01/07 09:42:10;;;;;;;28.52;25.48;;;19.50;49.70;;;;;;5079163;28;20032;-54
2021/01/07 09:44:37;;;;;;;28.88;25.77;;;19.60;49.80;;;;;;5088803;28;20070;-55
2021/01/07 09:47:04;;;;;;;27.48;24.58;;;19.60;49.70;;;;;;5064056;28;20051;-51
2021/01/07 09:49:31;;;;;;;27.60;24.70;;;19.60;49.60;;;;;;5084259;28;20385;-54
2021/01/07 09:51:58;;;;;;;27.10;23.33;;;19.60;49.70;;;;;;5078134;28;20024;-53
2021/01/07 09:54:24;;;;;;;34.05;30.35;;;19.60;49.80;;;;;;5078932;28;20017;-52
2021/01/07 09:56:55;;;;;;;31.95;27.65;;;19.60;49.80;;;;;;5066932;28;20107;-53
2021/01/07 09:59:25;;;;;;;29.40;26.08;;;19.60;49.80;;;;;;5078039;28;20030;-54
2021/01/07 10:01:52;;;;;;;;;;;19.70;49.80;;;;;;5045423;28;20116;-54
2021/01/07 10:04:19;;;;;;;22.95;19.90;;;19.70;49.80;;;;;;5090481;28;20312;-53
2021/01/07 10:06:45;;;;;;;19.50;17.50;;;19.70;49.80;;;;;;5080134;28;20032;-54
2021/01/07 10:09:11;;;;;;;50.72;43.30;;;19.70;49.80;;;;;;5087299;28;20081;-53
2021/01/07 10:11:37;;;;;;;67.45;57.80;;;19.60;49.90;;;;;;5089049;28;20070;-53
2021/01/07 10:14:03;;;;;;;63.30;54.55;;;19.60;50.00;;;;;;5087461;28;20032;-54
2021/01/07 10:16:29;;;;;;;43.92;39.13;;;19.60;50.10;;;;;;5068609;28;20543;-53
2021/01/07 10:18:56;;;;;;;41.15;36.75;;;19.50;50.20;;;;;;5039543;28;20055;-54
2021/01/07 10:21:24;;;;;;;31.58;28.30;;;19.50;50.30;;;;;;5062248;28;20024;-53
2021/01/07 10:23:55;;;;;;;21.35;19.13;;;19.50;50.40;;;;;;5048045;28;20177;-53
2021/01/07 10:26:21;;;;;;;21.38;19.02;;;19.50;50.50;;;;;;5029079;28;20492;-53
2021/01/07 10:28:49;;;;;;;16.90;15.10;;;19.50;50.50;;;;;;5067632;28;20536;-53
2021/01/07 10:31:19;;;;;;;17.35;15.50;;;19.50;50.60;;;;;;5039294;28;20024;-58
2021/01/07 10:33:46;;;;;;;14.70;12.80;;;19.50;50.60;;;;;;5059581;28;20474;-59
2021/01/07 10:36:16;;;;;;;13.80;11.10;;;19.50;50.70;;;;;;5054794;28;20356;-59
2021/01/07 10:38:46;;;;;;;10.80;9.60;;;19.50;50.80;;;;;;5059023;28;20031;-59
2021/01/07 10:41:13;;;;;;;17.08;15.27;;;19.50;50.80;;;;;;5040514;28;20032;-59
2021/01/07 10:43:39;;;;;;;21.00;17.90;;;19.50;50.80;;;;;;5040740;28;20064;-58
2021/01/07 10:46:05;;;;;;;19.05;15.43;;;19.60;50.90;;;;;;5039990;28;20032;-59
2021/01/07 10:48:41;;;;;;;19.25;16.45;;;19.50;50.70;;;;;;5055559;28;20025;-59
2021/01/07 10:51:08;;;;;;;15.07;12.88;;;19.50;50.90;;;;;;5059186;28;20029;-60
2021/01/07 10:54:08;;;;;;;12.52;10.82;;;19.60;50.90;;;;;;5066315;28;20031;-60
2021/01/07 10:56:34;;;;;;;11.85;10.65;;;19.60;51.10;;;;;;5028011;28;20055;-58
2021/01/07 10:59:48;;;;;;;40.88;31.05;;;19.60;50.80;;;;;;5051923;28;20064;-58
2021/01/07 11:02:34;;;;;;;22.23;18.73;;;19.60;50.80;;;;;;4991546;28;20056;-57
2021/01/07 11:05:03;;;;;;;16.85;15.05;;;19.60;50.90;;;;;;5061991;28;20060;-59
2021/01/07 11:07:38;;;;;;;16.58;13.50;;;19.70;50.90;;;;;;5052106;28;20032;-59
2021/01/07 11:10:06;;;;;;;11.27;10.15;;;19.60;51.10;;;;;;5052728;28;20736;-59
2021/01/07 11:13:02;;;;;;;11.45;10.30;;;19.70;51.10;;;;;;5052107;28;20044;-60
2021/01/07 11:15:29;;;;;;;52.95;47.15;;;19.60;51.10;;;;;;5046744;28;20044;-60
2021/01/07 11:17:58;;;;;;;92.88;82.53;;;19.70;51.10;;;;;;5028870;28;20537;-61
2021/01/07 11:20:27;;;;;;;69.15;61.65;;;19.70;51.20;;;;;;5053719;28;20083;-60
2021/01/07 11:22:54;;;;;;;64.07;56.60;;;19.70;51.40;;;;;;5034972;28;20025;-60
2021/01/07 11:25:21;;;;;;;46.10;40.70;;;19.70;51.30;;;;;;5033351;28;20060;-64
2021/01/07 11:27:49;;;;;;;42.78;38.35;;;19.70;51.40;;;;;;5053484;28;20398;-61
2021/01/07 11:30:16;;;;;;;41.85;36.70;;;19.80;51.50;;;;;;5041591;28;20424;-62
2021/01/07 11:32:45;;;;;;;28.77;25.40;;;19.70;51.50;;;;;;5054020;28;20350;-62
2021/01/07 11:35:11;;;;;;;23.30;20.83;;;19.80;51.70;;;;;;5035048;28;20060;-62
2021/01/07 11:37:43;;;;;;;19.63;16.90;;;19.80;51.60;;;;;;5058826;28;20029;-62
2021/01/07 11:40:18;;;;;;;17.25;15.45;;;19.80;51.70;;;;;;5061990;28;20107;-63
2021/01/07 11:43:09;;;;;;;15.95;13.27;;;19.80;51.80;;;;;;5055199;28;20055;-63
2021/01/07 11:45:36;;;;;;;;;;;19.80;51.80;;;;;;5059477;28;20029;-63
2021/01/07 11:48:07;;;;;;;11.55;9.70;;;19.80;51.50;;;;;;5037287;28;19912;-64
2021/01/07 11:50:37;;;;;;;8.60;6.53;;;19.90;51.70;;;;;;5060105;28;20029;-63
2021/01/07 11:53:05;;;;;;;7.72;4.45;;;19.90;51.80;;;;;;5053665;28;20033;-63
2021/01/07 11:55:37;;;;;;;4.53;3.78;;;19.80;51.80;;;;;;5041303;28;20036;-63
2021/01/07 11:58:15;;;;;;;9.13;4.47;;;19.80;52.10;;;;;;5039664;28;20454;-64
2021/01/07 12:00:42;;;;;;;8.93;4.35;;;19.80;52.00;;;;;;5052055;28;20036;-64
2021/01/07 12:03:08;;;;;;;6.95;3.67;;;19.80;52.20;;;;;;5057087;28;20068;-63
2021/01/07 12:05:37;;;;;;;10.23;3.88;;;19.80;52.20;;;;;;5063458;28;20039;-63
2021/01/07 12:08:03;;;;;;;5.95;3.33;;;19.80;52.40;;;;;;5043556;28;20040;-63
2021/01/07 12:10:31;;;;;;;6.43;3.47;;;19.90;52.50;;;;;;5055070;28;20033;-65
2021/01/07 12:13:20;;;;;;;5.57;3.35;;;19.90;52.50;;;;;;5038080;28;20127;-64
2021/01/07 12:15:51;;;;;;;4.88;3.13;;;19.90;52.60;;;;;;5061076;28;20463;-64
2021/01/07 12:18:18;;;;;;;5.82;2.63;;;19.90;52.50;;;;;;5067488;28;20127;-65
2021/01/07 12:20:46;;;;;;;5.22;2.72;;;20.00;52.40;;;;;;5082036;28;20039;-64
2021/01/07 12:23:14;;;;;;;4.97;2.60;;;20.00;52.40;;;;;;5059972;28;20039;-63
2021/01/07 12:25:41;;;;;;;5.65;2.40;;;20.00;52.40;;;;;;5061450;28;20067;-63
2021/01/07 12:28:14;;;;;;;7.88;2.95;;;20.10;52.30;;;;;;5068632;28;20131;-64
2021/01/07 12:30:44;;;;;;;7.65;3.30;;;20.10;52.30;;;;;;5068161;28;20032;-64
2021/01/07 12:33:44;;;;;;;9.43;3.42;;;20.10;52.60;;;;;;5086073;28;20073;-62
2021/01/07 12:36:26;;;;;;;8.68;3.30;;;20.10;52.40;;;;;;5083004;28;20032;-58
2021/01/07 12:39:04;;;;;;;23.20;2.63;;;20.20;52.40;;;;;;5063295;28;20478;-54
2021/01/07 12:41:37;;;;;;;8.68;3.35;;;20.20;52.40;;;;;;5082383;28;20042;-54
2021/01/07 12:44:09;;;;;;;6.95;3.17;;;20.30;52.40;;;;;;5082868;28;20028;-54
2021/01/07 12:46:45;;;;;;;7.10;2.75;;;20.30;52.40;;;;;;5080808;28;20405;-54